createdAt,value
2023-04-12T05:27:52.100Z,87.17
2023-04-12T05:32:54.396Z,88.33
2023-04-12T05:37:56.442Z,87.97
2023-04-12T05:42:58.028Z,88.59
2023-04-12T05:47:59.898Z,89.85
2023-04-12T05:53:01.852Z,89.49
2023-04-12T05:58:03.520Z,89.41
2023-04-12T06:03:05.979Z,89.22
2023-04-12T06:08:08.604Z,89.85
2023-04-12T06:13:10.150Z,89.21
2023-04-12T06:18:13.046Z,89.17
2023-04-12T06:23:14.562Z,90.06
2023-04-12T06:28:19.138Z,89.04
2023-04-12T06:33:23.575Z,89.45
2023-04-12T06:38:25.614Z,89.27
2023-04-12T06:43:27.353Z,88.30
2023-04-12T06:48:29.949Z,88.43
2023-04-12T06:53:31.705Z,87.79
2023-04-12T06:58:33.453Z,88.86
2023-04-12T07:03:35.711Z,88.04
2023-04-12T07:08:37.408Z,88.74
2023-04-12T07:13:38.938Z,87.91
2023-04-12T07:18:40.483Z,87.90
2023-04-12T07:23:41.966Z,87.77
2023-04-12T07:28:43.670Z,87.34
2023-04-12T07:33:45.497Z,86.67
2023-04-12T07:38:47.766Z,86.64
2023-04-12T07:43:49.866Z,85.54
2023-04-12T07:48:51.463Z,84.83
2023-04-12T07:53:53.550Z,84.39
2023-04-12T07:58:55.471Z,84.56
2023-04-12T08:03:57.517Z,86.23
2023-04-12T08:08:59.289Z,85.58
2023-04-12T08:14:01.394Z,84.96
2023-04-12T08:19:03.359Z,84.08
2023-04-12T08:24:05.456Z,84.88
2023-04-12T08:29:07.361Z,83.06
2023-04-12T08:34:08.797Z,82.73
2023-04-12T08:39:10.722Z,83.38
2023-04-12T08:44:12.770Z,82.76
2023-04-12T08:49:16.867Z,83.44
2023-04-12T08:54:18.508Z,81.94
2023-04-12T08:59:20.639Z,82.54
2023-04-12T09:04:23.685Z,83.82
2023-04-12T09:09:48.009Z,84.63
2023-04-12T09:15:08.862Z,84.07
2023-04-12T09:20:16.485Z,84.50
2023-04-12T09:25:18.236Z,83.75
2023-04-12T09:30:20.880Z,83.13
2023-04-12T09:35:35.071Z,83.29
2023-04-12T09:40:37.554Z,84.33
2023-04-12T09:45:40.056Z,83.77
2023-04-12T09:50:42.136Z,84.76
2023-04-12T09:55:44.129Z,83.74
2023-04-12T10:00:46.884Z,83.46
2023-04-12T10:05:48.987Z,82.97
2023-04-12T10:10:53.945Z,83.53
2023-04-12T10:15:55.690Z,82.07
2023-04-12T10:20:59.364Z,82.20
2023-04-12T10:26:05.063Z,81.48
2023-04-12T10:31:33.162Z,81.18
2023-04-12T10:36:55.132Z,78.70
2023-04-12T10:42:27.348Z,79.73
2023-04-12T10:47:47.888Z,79.09
2023-04-12T10:53:13.004Z,78.51
2023-04-12T10:58:49.374Z,77.56
2023-04-12T11:04:20.312Z,75.96
2023-04-12T11:09:30.026Z,73.94
2023-04-12T11:14:49.248Z,71.63
2023-04-12T11:19:57.717Z,70.83
2023-04-12T11:25:01.949Z,69.53
2023-04-12T11:30:04.211Z,68.69
2023-04-12T11:35:06.230Z,67.30
2023-04-12T11:40:09.501Z,66.19
2023-04-12T11:45:15.906Z,65.89
2023-04-12T11:50:31.169Z,64.05
2023-04-12T11:55:32.778Z,61.54
2023-04-12T12:00:34.610Z,60.98
2023-04-12T12:05:38.462Z,60.45
2023-04-12T12:10:55.511Z,59.75
2023-04-12T12:16:02.048Z,58.80
2023-04-12T12:21:03.809Z,57.78
2023-04-12T12:26:18.943Z,58.52
2023-04-12T12:31:24.758Z,57.98
2023-04-12T12:36:34.551Z,58.54
2023-04-12T12:41:36.637Z,57.93
2023-04-12T12:51:43.023Z,59.87
2023-04-12T12:56:45.053Z,61.17
2023-04-12T13:01:46.669Z,61.74
2023-04-12T13:06:48.234Z,61.81
2023-04-12T13:11:49.785Z,61.28
2023-04-12T13:16:51.439Z,59.07
2023-04-12T13:21:53.332Z,59.50
2023-04-12T13:26:55.054Z,58.70
2023-04-12T13:31:56.656Z,59.59
2023-04-12T13:36:59.028Z,57.88
2023-04-12T13:42:02.361Z,59.33
2023-04-12T13:47:04.714Z,60.93
2023-04-12T13:52:06.545Z,61.05
2023-04-12T13:57:08.219Z,62.37
2023-04-12T14:02:09.964Z,63.21
2023-04-12T14:07:12.814Z,63.25
2023-04-12T14:12:14.741Z,65.87
2023-04-12T14:17:16.234Z,71.25
2023-04-12T14:22:17.757Z,79.60
2023-04-12T14:27:19.349Z,82.59
2023-04-12T14:32:21.055Z,85.78
2023-04-12T14:37:22.692Z,87.96
2023-04-12T14:42:24.307Z,89.77
2023-04-12T14:47:26.108Z,90.10
2023-04-12T14:52:28.341Z,92.27
2023-04-12T14:57:30.299Z,92.30
2023-04-12T15:02:32.456Z,93.31
2023-04-12T15:07:35.077Z,92.99
2023-04-12T15:12:37.445Z,91.94
2023-04-12T15:17:39.038Z,92.06
2023-04-12T15:22:41.010Z,91.67
2023-04-12T15:27:44.212Z,89.44
2023-04-12T15:32:47.014Z,88.72
2023-04-12T15:37:48.526Z,88.25
2023-04-12T15:42:50.030Z,89.09
2023-04-12T15:47:52.251Z,88.03
2023-04-12T15:52:55.464Z,87.22
2023-04-12T15:57:59.659Z,86.54
2023-04-12T16:03:01.957Z,86.30
2023-04-12T16:08:04.114Z,85.07
2023-04-12T16:13:06.586Z,84.49
2023-04-12T16:18:09.158Z,84.59
2023-04-12T16:23:11.535Z,84.29
2023-04-12T16:28:14.482Z,83.37
2023-04-12T16:33:15.988Z,82.51
2023-04-12T16:38:17.889Z,81.42
2023-04-12T16:43:19.496Z,80.73
2023-04-12T16:48:22.841Z,78.89
2023-04-12T16:53:24.703Z,79.45
2023-04-12T16:58:26.464Z,79.24
2023-04-12T17:03:28.260Z,79.23
2023-04-12T17:08:29.850Z,79.21
2023-04-12T17:13:31.447Z,79.12
2023-04-12T17:18:34.623Z,78.98
2023-04-12T17:23:39.171Z,78.74
2023-04-12T17:28:41.601Z,78.33
2023-04-12T17:33:43.784Z,77.93
2023-04-12T17:38:45.670Z,77.92
2023-04-12T17:43:47.251Z,76.99
2023-04-12T17:48:48.757Z,76.82
2023-04-12T17:53:50.676Z,76.56
2023-04-12T17:58:52.586Z,76.19
2023-04-12T18:03:54.831Z,76.40
2023-04-12T18:08:58.880Z,76.63
2023-04-12T18:14:00.516Z,76.33
2023-04-12T18:19:03.233Z,76.84
2023-04-12T18:24:06.077Z,76.32
2023-04-12T18:29:08.015Z,76.46
2023-04-12T18:34:09.747Z,76.27
2023-04-12T18:39:11.634Z,77.14
2023-04-12T18:44:13.346Z,77.21
2023-04-12T18:49:16.401Z,76.74
2023-04-12T18:54:17.956Z,77.27
2023-04-12T18:59:19.634Z,77.23
2023-04-12T19:04:21.265Z,77.38
2023-04-12T19:09:22.736Z,78.17
2023-04-12T19:14:25.316Z,77.96
2023-04-12T19:19:26.747Z,79.14
2023-04-12T19:24:28.400Z,78.61
2023-04-12T19:29:30.305Z,79.72
2023-04-12T19:34:31.908Z,81.63
2023-04-12T19:39:33.528Z,88.42
2023-04-12T19:44:35.013Z,91.40
2023-04-12T19:49:37.573Z,93.45
2023-04-12T19:54:39.536Z,92.74
2023-04-12T19:59:40.989Z,94.11
2023-04-12T20:04:42.450Z,93.22
2023-04-12T20:09:44.800Z,93.67
2023-04-12T20:14:46.720Z,96.18
2023-04-12T20:19:48.489Z,98.98
2023-04-12T20:24:50.618Z,100.00
2023-04-12T20:29:53.379Z,100.00
2023-04-12T20:34:55.514Z,100.00
2023-04-12T20:39:56.905Z,100.00
2023-04-12T20:44:58.577Z,100.00
2023-04-12T20:50:00.349Z,100.00
2023-04-12T20:55:02.694Z,100.00
2023-04-12T21:00:12.729Z,100.00
2023-04-12T21:05:16.896Z,100.00
2023-04-12T21:10:18.866Z,100.00
2023-04-12T21:15:22.191Z,100.00
2023-04-12T21:20:24.703Z,100.00
2023-04-12T21:25:26.256Z,100.00
2023-04-12T21:30:27.725Z,100.00
2023-04-12T21:35:30.532Z,100.00
2023-04-12T21:40:32.132Z,100.00
2023-04-12T21:45:33.950Z,100.00
2023-04-12T21:50:35.681Z,100.00
2023-04-12T21:55:37.235Z,100.00
2023-04-12T22:00:38.957Z,100.00
2023-04-12T22:05:40.573Z,100.00
2023-04-12T22:10:42.606Z,99.67
2023-04-12T22:15:44.168Z,100.00
2023-04-12T22:20:46.325Z,99.82
2023-04-12T22:25:49.525Z,99.48
2023-04-12T22:30:51.630Z,99.79
2023-04-12T22:35:53.046Z,100.00
2023-04-12T22:41:02.209Z,98.70
2023-04-12T22:46:05.950Z,98.02
2023-04-12T22:51:08.417Z,97.62
2023-04-12T22:56:10.281Z,96.81
2023-04-12T23:01:12.238Z,96.78
2023-04-12T23:06:13.786Z,95.22
2023-04-12T23:11:15.183Z,93.84
2023-04-12T23:16:16.924Z,93.59
2023-04-12T23:21:18.676Z,93.57
2023-04-12T23:26:20.273Z,92.90
2023-04-12T23:31:21.788Z,91.53
2023-04-12T23:36:25.724Z,89.98
2023-04-12T23:41:31.852Z,88.22
2023-04-12T23:46:33.392Z,87.66
2023-04-12T23:51:34.819Z,87.97
2023-04-12T23:56:36.387Z,88.12
